Time;durP1;ratioP1;P1;durP2;ratioP2;P2;SDS_P1;SDS_P2;PMS_P1;PMS_P2;Temp;Humidity;BMP_temperature;BMP_pressure;BME280_temperature;BME280_humidity;BME280_pressure;Samples;Min_cycle;Max_cycle;Signal;HPM_P1;HPM_P2
2023/12/29 00:00:19;;;;;;;12.45;2.15;;;;;;;10.31;100.00;100565.75;4966587;28;20015;-90
2023/12/29 00:02:45;;;;;;;7.85;1.63;;;;;;;10.34;100.00;100557.34;4991827;28;20137;-91
2023/12/29 00:05:10;;;;;;;4.90;1.10;;;;;;;10.30;100.00;100556.69;4960543;28;21005;-90
2023/12/29 00:07:36;;;;;;;8.57;1.65;;;;;;;10.32;100.00;100551.13;4956566;28;20039;-92
2023/12/29 00:10:01;;;;;;;8.35;1.65;;;;;;;10.33;100.00;100552.88;4941324;28;20429;-92
2023/12/29 00:12:26;;;;;;;8.63;1.25;;;;;;;10.31;100.00;100549.34;4958538;28;20062;-92
2023/12/29 00:14:52;;;;;;;9.80;1.20;;;;;;;10.25;100.00;100542.53;4939887;29;20042;-92
2023/12/29 00:17:17;;;;;;;15.60;1.63;;;;;;;10.30;100.00;100542.16;4966191;28;20412;-91
2023/12/29 00:19:43;;;;;;;9.70;1.33;;;;;;;10.27;100.00;100545.13;4958501;28;20035;-92
2023/12/29 00:22:08;;;;;;;11.63;1.05;;;;;;;10.27;100.00;100537.78;4961019;28;20030;-92
2023/12/29 00:24:33;;;;;;;11.70;1.85;;;;;;;10.30;100.00;100547.63;4955049;28;20091;-92
2023/12/29 00:26:59;;;;;;;13.23;1.08;;;;;;;10.29;100.00;100537.66;4994098;28;20038;-91
2023/12/29 00:29:25;;;;;;;5.47;1.00;;;;;;;10.27;100.00;100535.06;4974381;28;20110;-92
2023/12/29 00:31:50;;;;;;;10.65;1.38;;;;;;;10.26;100.00;100535.19;5002807;28;20033;-93
2023/12/29 00:34:16;;;;;;;6.13;1.05;;;;;;;10.29;100.00;100533.03;4977536;28;21538;-92
2023/12/29 00:36:41;;;;;;;8.65;1.05;;;;;;;10.27;100.00;100537.78;4951513;28;20052;-92
2023/12/29 00:39:06;;;;;;;5.68;0.95;;;;;;;10.25;100.00;100544.41;4959455;28;20484;-91
2023/12/29 00:41:32;;;;;;;7.43;1.40;;;;;;;10.28;100.00;100528.59;4974813;28;20038;-92
2023/12/29 00:43:57;;;;;;;11.00;1.20;;;;;;;10.30;100.00;100531.19;4986525;28;20145;-91
2023/12/29 00:46:23;;;;;;;10.15;1.15;;;;;;;10.28;100.00;100505.81;4977955;28;20031;-91
2023/12/29 00:48:48;;;;;;;11.55;1.58;;;;;;;10.29;100.00;100530.31;4983966;28;20041;-92
2023/12/29 00:51:13;;;;;;;12.15;1.33;;;;;;;10.28;100.00;100530.44;4986362;28;20030;-91
2023/12/29 00:53:39;;;;;;;9.90;1.00;;;;;;;10.30;100.00;100525.72;4955854;28;20470;-83
2023/12/29 00:56:10;;;;;;;8.77;1.65;;;;;;;10.27;100.00;100509.56;4967534;28;20078;-83
2023/12/29 00:58:36;;;;;;;8.63;1.05;;;;;;;10.28;100.00;100500.34;4978954;28;20400;-84
2023/12/29 01:01:01;;;;;;;11.60;1.35;;;;;;;10.22;100.00;100489.94;4954453;28;20030;-84
2023/12/29 01:03:26;;;;;;;9.80;0.95;;;;;;;10.24;100.00;100490.66;4970285;28;20129;-84
2023/12/29 01:05:52;;;;;;;6.18;1.13;;;;;;;10.19;100.00;100490.19;4969397;28;20047;-84
2023/12/29 01:08:17;;;;;;;10.00;1.50;;;;;;;10.21;100.00;100497.25;4970974;28;20034;-84
2023/12/29 01:10:42;;;;;;;6.65;0.90;;;;;;;10.23;100.00;100498.00;4983068;28;20038;-84
2023/12/29 01:13:08;;;;;;;11.13;1.50;;;;;;;10.22;100.00;100496.25;4952694;28;20035;-83
2023/12/29 01:15:33;;;;;;;18.70;2.75;;;;;;;10.11;100.00;100519.03;4969911;28;20465;-84
2023/12/29 01:17:59;;;;;;;6.75;1.20;;;;;;;9.89;100.00;100516.34;4950613;28;20031;-84
2023/12/29 01:20:24;;;;;;;15.10;1.75;;;;;;;9.79;100.00;100504.41;4953758;28;20185;-83
2023/12/29 01:22:50;;;;;;;10.27;1.50;;;;;;;9.61;100.00;100510.38;4952358;28;20528;-83
2023/12/29 01:25:15;;;;;;;10.77;1.58;;;;;;;9.52;100.00;100509.25;4976814;28;20480;-84
2023/12/29 01:27:41;;;;;;;8.55;1.70;;;;;;;9.43;100.00;100520.94;4985076;28;20089;-85
2023/12/29 01:30:07;;;;;;;6.95;1.35;;;;;;;9.33;100.00;100517.16;4953743;28;20031;-82
2023/12/29 01:32:32;;;;;;;14.00;1.33;;;;;;;9.23;100.00;100524.38;4985524;28;20045;-84
2023/12/29 01:34:57;;;;;;;14.05;1.77;;;;;;;9.20;100.00;100525.50;4952219;28;20031;-84
2023/12/29 01:37:23;;;;;;;18.17;1.55;;;;;;;9.15;100.00;100527.69;4969862;28;20106;-83
2023/12/29 01:39:48;;;;;;;9.75;1.65;;;;;;;9.08;100.00;100515.50;4949408;28;20027;-83
2023/12/29 01:42:13;;;;;;;10.38;1.50;;;;;;;9.00;100.00;100522.47;4967754;28;20113;-83
2023/12/29 01:44:39;;;;;;;14.55;1.70;;;;;;;8.98;100.00;100531.75;4961864;28;20118;-84
2023/12/29 01:47:14;;;;;;;14.60;1.33;;;;;;;9.01;100.00;100532.38;4954687;28;20092;-84
2023/12/29 01:49:40;;;;;;;13.82;1.73;;;;;;;8.91;100.00;100531.34;4976807;28;20034;-84
2023/12/29 01:52:06;;;;;;;19.88;2.58;;;;;;;8.85;100.00;100540.00;4957479;28;20038;-84
2023/12/29 01:54:37;;;;;;;9.18;2.22;;;;;;;8.78;100.00;100545.09;4972419;28;20019;-84
2023/12/29 01:57:04;;;;;;;15.88;1.65;;;;;;;8.74;100.00;100529.94;4972077;28;20121;-84
2023/12/29 01:59:31;;;;;;;12.38;1.90;;;;;;;8.75;100.00;100530.81;4973327;28;20045;-83
2023/12/29 02:01:56;;;;;;;12.65;2.05;;;;;;;8.75;100.00;100512.56;4972973;28;20050;-84
2023/12/29 02:04:24;;;;;;;15.38;1.70;;;;;;;8.70;100.00;100517.50;4978065;28;20121;-90
2023/12/29 02:06:50;;;;;;;15.57;3.17;;;;;;;8.74;100.00;100515.41;4985611;28;20019;-89
2023/12/29 02:09:17;;;;;;;19.40;2.08;;;;;;;8.74;100.00;100512.66;4974320;28;20031;-90
2023/12/29 02:11:42;;;;;;;13.80;1.90;;;;;;;8.72;100.00;100487.38;4991163;28;20039;-89
2023/12/29 02:14:08;;;;;;;16.23;1.90;;;;;;;8.73;100.00;100495.44;4989481;28;20038;-89
2023/12/29 02:16:45;;;;;;;20.77;2.40;;;;;;;8.70;100.00;100486.63;4959776;28;20026;-89
2023/12/29 02:19:36;;;;;;;9.90;2.35;;;;;;;8.75;100.00;100496.19;4982135;28;20031;-90
2023/12/29 02:22:01;;;;;;;15.93;1.95;;;;;;;8.79;100.00;100488.66;4981562;28;20062;-90
2023/12/29 02:24:27;;;;;;;15.98;1.90;;;;;;;8.85;100.00;100493.59;4977610;28;20189;-90
2023/12/29 02:27:02;;;;;;;10.90;2.13;;;;;;;8.84;100.00;100489.16;4963249;28;20611;-90
2023/12/29 02:29:29;;;;;;;8.38;1.83;;;;;;;8.87;100.00;100497.13;4989615;28;20030;-89
2023/12/29 02:31:59;;;;;;;15.70;2.08;;;;;;;8.90;100.00;100495.97;4976391;28;20472;-90
2023/12/29 02:34:25;;;;;;;18.02;2.70;;;;;;;8.93;100.00;100498.47;4983747;28;20031;-90
2023/12/29 02:36:51;;;;;;;13.15;1.90;;;;;;;8.99;100.00;100495.28;4968665;28;20041;-91
2023/12/29 02:39:17;;;;;;;16.08;1.70;;;;;;;8.93;100.00;100485.69;4964813;28;20086;-91
2023/12/29 02:41:43;;;;;;;11.73;1.40;;;;;;;9.10;100.00;100486.22;4991402;28;20038;-91
2023/12/29 02:44:09;;;;;;;13.07;2.20;;;;;;;9.12;100.00;100485.13;4957905;28;20568;-91
2023/12/29 02:46:35;;;;;;;17.67;2.45;;;;;;;9.09;100.00;100484.50;4964416;28;20043;-91
2023/12/29 02:49:00;;;;;;;17.90;2.15;;;;;;;9.17;100.00;100485.63;4980781;28;20031;-91
2023/12/29 02:51:25;;;;;;;14.27;1.40;;;;;;;9.23;100.00;100487.00;4969475;28;20101;-90
2023/12/29 02:53:51;;;;;;;7.93;1.55;;;;;;;9.27;100.00;100485.75;4956752;28;20029;-89
2023/12/29 02:56:16;;;;;;;12.38;2.28;;;;;;;9.27;100.00;100487.63;4960862;28;20042;-92
2023/12/29 02:58:42;;;;;;;10.35;1.38;;;;;;;9.28;100.00;100501.16;4995048;28;20117;-90
2023/12/29 03:01:07;;;;;;;19.67;2.00;;;;;;;9.43;100.00;100500.91;4957258;28;20554;-90
2023/12/29 03:03:32;;;;;;;11.13;1.40;;;;;;;9.37;100.00;100503.16;4972439;28;20039;-90
2023/12/29 03:05:58;;;;;;;8.25;1.23;;;;;;;9.36;100.00;100498.69;4982613;28;20147;-91
2023/12/29 03:08:23;;;;;;;9.80;1.30;;;;;;;9.37;100.00;100492.22;4986618;28;20034;-91
2023/12/29 03:10:49;;;;;;;5.22;1.40;;;;;;;9.46;100.00;100503.41;4970139;28;20031;-89
2023/12/29 03:13:14;;;;;;;14.80;1.23;;;;;;;9.51;100.00;100490.22;5007746;28;20771;-84
2023/12/29 03:15:40;;;;;;;19.48;1.75;;;;;;;9.42;100.00;100489.13;4986828;28;20041;-83
2023/12/29 03:18:05;;;;;;;12.27;1.48;;;;;;;9.43;100.00;100489.97;4956572;28;20035;-83
2023/12/29 03:20:31;;;;;;;16.35;2.33;;;;;;;9.45;100.00;100479.81;4954586;28;20412;-83
2023/12/29 03:22:57;;;;;;;11.70;1.67;;;;;;;9.53;100.00;100482.81;4955750;28;20045;-84
2023/12/29 03:25:22;;;;;;;11.05;1.30;;;;;;;9.45;100.00;100475.22;4956378;28;20058;-84
2023/12/29 03:27:47;;;;;;;6.70;1.10;;;;;;;9.53;100.00;100478.19;4958819;28;20058;-83
2023/12/29 03:30:13;;;;;;;12.43;1.35;;;;;;;9.51;100.00;100465.63;4957170;28;20064;-84
2023/12/29 03:32:38;;;;;;;11.07;1.70;;;;;;;9.49;100.00;100462.16;4956941;28;20031;-84
2023/12/29 03:35:04;;;;;;;10.02;1.40;;;;;;;9.49;100.00;100467.63;4956408;28;20066;-84
2023/12/29 03:37:30;;;;;;;8.98;1.27;;;;;;;9.53;100.00;100471.88;4970515;28;20122;-84
2023/12/29 03:39:55;;;;;;;10.27;1.33;;;;;;;9.55;100.00;100475.34;4952825;28;20485;-83
2023/12/29 03:42:20;;;;;;;13.32;2.58;;;;;;;9.59;100.00;100476.81;4948785;28;20039;-83
2023/12/29 03:44:46;;;;;;;11.00;1.13;;;;;;;9.61;100.00;100472.13;4971193;28;20050;-85
2023/12/29 03:47:11;;;;;;;15.52;1.63;;;;;;;9.57;100.00;100474.25;4971584;28;20567;-83
2023/12/29 03:49:36;;;;;;;12.98;1.35;;;;;;;9.55;100.00;100475.34;4972549;28;20043;-84
2023/12/29 03:52:02;;;;;;;10.77;1.35;;;;;;;9.63;100.00;100455.59;4953223;28;20053;-84
2023/12/29 03:54:27;;;;;;;11.65;1.25;;;;;;;9.58;100.00;100477.84;4950108;28;20059;-84
2023/12/29 03:56:54;;;;;;;11.18;1.20;;;;;;;9.57;100.00;100473.34;4952737;28;20105;-83
2023/12/29 03:59:19;;;;;;;8.90;1.35;;;;;;;9.60;100.00;100473.09;4954533;28;20070;-84
2023/12/29 04:01:45;;;;;;;9.27;1.13;;;;;;;9.69;100.00;100461.44;4969549;28;20042;-84
2023/12/29 04:04:10;;;;;;;8.77;1.00;;;;;;;9.74;100.00;100459.19;4987168;28;20112;-84
2023/12/29 04:06:35;;;;;;;11.07;1.58;;;;;;;9.70;100.00;100467.75;4951511;28;20117;-83
2023/12/29 04:09:01;;;;;;;9.88;1.30;;;;;;;9.68;100.00;100461.56;4982915;28;20046;-83
2023/12/29 04:11:26;;;;;;;10.25;2.05;;;;;;;9.71;100.00;100444.91;4954175;28;20301;-84
2023/12/29 04:13:52;;;;;;;12.35;1.83;;;;;;;9.81;100.00;100454.06;4987381;28;20519;-83
2023/12/29 04:16:18;;;;;;;12.32;1.17;;;;;;;9.80;100.00;100462.41;4981471;28;20035;-84
2023/12/29 04:18:43;;;;;;;10.10;1.42;;;;;;;9.89;100.00;100458.91;4954658;28;20552;-85
2023/12/29 04:21:13;;;;;;;13.45;1.20;;;;;;;9.91;100.00;100460.50;4957669;28;20122;-83
2023/12/29 04:23:41;;;;;;;11.02;1.73;;;;;;;9.90;100.00;100463.38;4954819;28;20037;-84
2023/12/29 04:26:07;;;;;;;13.07;2.05;;;;;;;9.88;100.00;100454.44;4985902;28;20046;-84
2023/12/29 04:28:32;;;;;;;7.32;1.00;;;;;;;9.94;100.00;100465.72;4953404;28;20026;-84
2023/12/29 04:30:57;;;;;;;15.35;1.77;;;;;;;9.93;100.00;100466.72;4953124;28;20122;-84
2023/12/29 04:33:23;;;;;;;12.48;1.52;;;;;;;9.97;100.00;100470.09;4970886;28;20045;-84
2023/12/29 04:35:48;;;;;;;10.25;1.15;;;;;;;9.99;100.00;100470.81;4953709;28;20041;-84
2023/12/29 04:38:14;;;;;;;7.30;1.63;;;;;;;10.06;100.00;100463.84;4964633;28;20043;-83
2023/12/29 04:40:40;;;;;;;7.40;1.13;;;;;;;10.07;100.00;100465.59;4952472;28;20039;-84
2023/12/29 04:43:06;;;;;;;12.60;1.10;;;;;;;10.01;100.00;100471.56;4977467;28;20086;-84
2023/12/29 04:45:31;;;;;;;12.38;1.75;;;;;;;10.01;100.00;100470.69;4971113;28;20050;-83
2023/12/29 04:47:57;;;;;;;7.38;1.30;;;;;;;9.91;100.00;100454.19;4971049;28;20117;-84
2023/12/29 04:50:22;;;;;;;9.45;1.83;;;;;;;10.05;100.00;100463.97;4968668;28;20044;-84
2023/12/29 04:52:48;;;;;;;10.25;1.23;;;;;;;10.01;100.00;100460.63;4987249;28;20031;-83
2023/12/29 04:55:14;;;;;;;9.43;1.52;;;;;;;10.04;100.00;100459.50;4967148;28;20037;-84
2023/12/29 04:57:39;;;;;;;15.50;1.58;;;;;;;10.04;100.00;100468.56;4970762;28;20046;-84
2023/12/29 05:00:05;;;;;;;7.95;1.20;;;;;;;10.00;100.00;100467.09;4982213;28;20031;-84
2023/12/29 05:02:31;;;;;;;10.10;1.23;;;;;;;9.95;100.00;100466.59;4969184;28;20399;-84
2023/12/29 05:04:56;;;;;;;12.23;1.00;;;;;;;9.91;100.00;100465.13;4964443;28;20035;-84
2023/12/29 05:07:23;;;;;;;8.77;1.30;;;;;;;9.92;100.00;100458.66;4951710;28;20041;-84
2023/12/29 05:09:49;;;;;;;14.20;1.23;;;;;;;9.96;100.00;100457.41;4969566;28;20110;-83
2023/12/29 05:12:14;;;;;;;11.02;1.92;;;;;;;9.96;100.00;100471.06;4951868;28;20129;-84
2023/12/29 05:14:40;;;;;;;17.17;1.65;;;;;;;9.95;100.00;100483.00;4967699;28;20049;-84
2023/12/29 05:17:06;;;;;;;6.78;1.25;;;;;;;9.99;100.00;100487.22;4954375;28;20558;-83
2023/12/29 05:19:31;;;;;;;12.00;1.50;;;;;;;9.88;100.00;100468.09;4982178;28;20475;-83
2023/12/29 05:21:57;;;;;;;16.88;2.13;;;;;;;9.82;100.00;100465.88;4984385;28;20041;-83
2023/12/29 05:24:22;;;;;;;13.98;1.65;;;;;;;9.81;100.00;100469.63;4972782;28;20015;-83
2023/12/29 05:26:48;;;;;;;13.25;1.55;;;;;;;9.84;100.00;100469.34;4985576;28;20054;-84
2023/12/29 05:29:13;;;;;;;8.60;1.23;;;;;;;9.89;100.00;100462.50;4971972;28;20098;-84
2023/12/29 05:31:39;;;;;;;6.57;1.73;;;;;;;9.84;100.00;100472.06;4971471;28;20031;-82
2023/12/29 05:34:04;;;;;;;15.10;2.03;;;;;;;9.82;100.00;100477.69;4961548;28;20073;-92
2023/12/29 05:36:29;;;;;;;11.00;1.30;;;;;;;9.78;100.00;100473.47;4979307;28;20042;-90
2023/12/29 05:38:56;;;;;;;9.55;1.27;;;;;;;9.80;100.00;100478.81;4954474;28;20034;-91
2023/12/29 05:41:21;;;;;;;23.35;2.45;;;;;;;9.82;100.00;100469.50;4981955;28;20051;-92
2023/12/29 05:43:47;;;;;;;5.90;1.05;;;;;;;9.89;100.00;100470.72;4971191;28;20571;-92
2023/12/29 05:46:12;;;;;;;12.80;1.65;;;;;;;9.88;100.00;100470.84;4954504;28;20094;-92
2023/12/29 05:48:41;;;;;;;6.18;1.15;;;;;;;9.82;100.00;100464.03;4963870;28;20034;-92
2023/12/29 05:51:10;;;;;;;10.57;1.65;;;;;;;9.78;100.00;100468.00;4961728;28;20035;-92
2023/12/29 05:53:36;;;;;;;20.33;1.38;;;;;;;9.84;100.00;100462.03;4980060;28;20109;-92
2023/12/29 05:56:02;;;;;;;15.80;1.70;;;;;;;9.82;100.00;100474.06;4984094;28;20035;-92
2023/12/29 05:58:28;;;;;;;13.88;1.65;;;;;;;9.90;100.00;100469.72;4990528;28;20037;-92
2023/12/29 06:00:55;;;;;;;12.55;1.60;;;;;;;9.83;100.00;100465.75;4985704;28;20093;-93
2023/12/29 06:03:20;;;;;;;11.40;1.17;;;;;;;9.89;100.00;100456.19;4961124;28;20019;-92
2023/12/29 06:05:46;;;;;;;18.55;1.58;;;;;;;9.81;100.00;100454.06;4972141;28;20038;-92
2023/12/29 06:08:11;;;;;;;10.73;2.88;;;;;;;9.80;100.00;100468.72;4945803;28;20023;-93
2023/12/29 06:10:37;;;;;;;12.98;1.70;;;;;;;9.80;100.00;100468.72;4971265;28;20294;-92
2023/12/29 06:13:03;;;;;;;12.85;1.67;;;;;;;9.81;100.00;100472.34;4955169;28;20038;-92
2023/12/29 06:15:28;;;;;;;16.25;1.85;;;;;;;9.82;100.00;100472.22;4978489;28;20426;-92
2023/12/29 06:17:54;;;;;;;8.80;1.80;;;;;;;9.97;100.00;100459.16;4980917;28;20031;-91
2023/12/29 06:20:20;;;;;;;14.88;1.23;;;;;;;9.95;100.00;100461.13;4979951;28;20042;-91
2023/12/29 06:22:45;;;;;;;7.80;1.27;;;;;;;9.91;100.00;100459.66;4952780;28;20074;-91
2023/12/29 06:25:11;;;;;;;18.58;1.83;;;;;;;9.85;100.00;100458.28;5006756;28;20023;-90
2023/12/29 06:27:38;;;;;;;17.98;1.88;;;;;;;9.82;100.00;100457.66;4970135;28;20049;-91
2023/12/29 06:30:07;;;;;;;10.05;1.38;;;;;;;9.83;100.00;100462.16;4983324;28;20125;-91
2023/12/29 06:32:33;;;;;;;13.68;1.42;;;;;;;9.83;100.00;100456.69;4989834;28;20029;-91
2023/12/29 06:34:58;;;;;;;8.05;1.10;;;;;;;9.86;100.00;100457.28;4960462;28;20039;-91
2023/12/29 06:37:24;;;;;;;10.85;1.00;;;;;;;9.77;100.00;100462.66;4981687;28;20039;-91
2023/12/29 06:39:49;;;;;;;13.73;1.38;;;;;;;9.76;100.00;100456.31;4983639;28;20034;-88
2023/12/29 06:42:15;;;;;;;11.13;1.27;;;;;;;9.74;100.00;100452.84;4980590;28;20097;-88
2023/12/29 06:44:40;;;;;;;11.75;1.50;;;;;;;9.68;100.00;100462.41;4972840;28;20047;-90
2023/12/29 06:47:06;;;;;;;13.32;1.52;;;;;;;9.67;100.00;100460.66;4962032;28;20138;-89
2023/12/29 06:49:34;;;;;;;10.63;1.25;;;;;;;9.64;100.00;100470.97;4975661;28;20106;-89
2023/12/29 06:52:00;;;;;;;18.40;1.75;;;;;;;9.56;100.00;100463.44;4976817;28;20037;-89
2023/12/29 06:54:26;;;;;;;15.10;2.47;;;;;;;9.56;100.00;100463.44;4976081;28;20122;-88
2023/12/29 06:56:51;;;;;;;10.90;1.88;;;;;;;9.48;100.00;100469.50;4984522;28;20042;-96
2023/12/29 06:59:18;;;;;;;8.35;1.35;;;;;;;9.41;100.00;100467.38;5000002;28;20118;-90
2023/12/29 07:01:44;;;;;;;10.57;1.75;;;;;;;9.33;100.00;100468.00;4986943;28;20037;-94
2023/12/29 07:04:10;;;;;;;6.68;1.45;;;;;;;9.34;100.00;100467.88;4975896;28;20022;-87
2023/12/29 07:06:36;;;;;;;11.77;1.30;;;;;;;9.34;100.00;100454.22;4977384;28;20085;-88
2023/12/29 07:09:02;;;;;;;9.00;1.20;;;;;;;9.28;100.00;100443.81;4967479;28;20400;-91
2023/12/29 07:11:28;;;;;;;13.20;1.60;;;;;;;9.30;100.00;100458.19;4999821;28;20040;-89
2023/12/29 07:13:54;;;;;;;9.75;1.52;;;;;;;9.29;100.00;100447.38;4960672;28;20073;-90
2023/12/29 07:16:22;;;;;;;16.13;1.63;;;;;;;9.28;100.00;100453.84;4963171;28;20122;-87
2023/12/29 07:18:48;;;;;;;12.23;1.83;;;;;;;9.29;100.00;100440.06;4956686;28;20041;-85
2023/12/29 07:21:15;;;;;;;10.98;1.80;;;;;;;9.28;100.00;100457.47;4975880;28;20035;-87
2023/12/29 07:23:41;;;;;;;13.57;1.88;;;;;;;9.32;100.00;100442.53;4957472;28;20033;-85
2023/12/29 07:26:07;;;;;;;14.90;1.65;;;;;;;9.33;100.00;100451.59;4976174;28;20042;-86
2023/12/29 07:28:32;;;;;;;11.00;1.48;;;;;;;9.33;100.00;100440.66;4942087;28;20093;-89
2023/12/29 07:30:58;;;;;;;19.48;1.88;;;;;;;9.34;100.00;100443.28;4958744;28;20043;-86
2023/12/29 07:33:24;;;;;;;16.48;1.50;;;;;;;9.33;100.00;100452.50;4963827;28;20853;-88
2023/12/29 07:35:50;;;;;;;15.77;1.67;;;;;;;9.35;100.00;100452.38;4960616;28;20035;-88
2023/12/29 07:38:15;;;;;;;8.00;1.80;;;;;;;9.40;100.00;100465.66;4977842;28;20038;-87
2023/12/29 07:40:42;;;;;;;11.55;1.30;;;;;;;9.37;100.00;100448.50;4974313;28;20141;-88
2023/12/29 07:43:07;;;;;;;6.18;1.75;;;;;;;9.41;100.00;100462.78;4973919;28;20608;-86
2023/12/29 07:45:33;;;;;;;6.50;1.25;;;;;;;9.41;100.00;100457.31;4969775;28;20133;-87
2023/12/29 07:47:58;;;;;;;11.93;1.73;;;;;;;9.36;100.00;100440.44;4954775;28;20034;-84
2023/12/29 07:50:24;;;;;;;8.43;1.00;;;;;;;9.27;100.00;100422.94;4982051;28;20037;-87
2023/12/29 07:52:49;;;;;;;11.73;1.30;;;;;;;9.20;100.00;100403.44;4954717;28;20031;-90
2023/12/29 07:55:16;;;;;;;18.58;1.92;;;;;;;9.17;100.00;100375.50;4943791;28;20039;-87
2023/12/29 07:57:43;;;;;;;8.90;1.23;;;;;;;9.11;100.00;100387.78;4973734;28;20058;-87
2023/12/29 08:00:09;;;;;;;11.35;2.00;;;;;;;9.11;100.00;100395.97;4963647;28;20089;-87
2023/12/29 08:02:35;;;;;;;14.20;1.50;;;;;;;9.13;100.00;100426.78;4976695;28;20050;-87
2023/12/29 08:05:00;;;;;;;12.07;1.23;;;;;;;9.12;100.00;100421.44;4997306;28;20502;-89
2023/12/29 08:07:26;;;;;;;8.52;1.83;;;;;;;9.17;100.00;100414.59;4975411;28;20039;-89
2023/12/29 08:09:51;;;;;;;15.52;1.67;;;;;;;9.18;100.00;100427.28;4959065;28;20027;-86
2023/12/29 08:12:16;;;;;;;11.38;1.05;;;;;;;9.21;100.00;100442.53;4988888;28;20099;-86
2023/12/29 08:14:42;;;;;;;8.50;1.10;;;;;;;9.22;100.00;100443.44;4954530;28;20121;-88
2023/12/29 08:17:08;;;;;;;4.13;1.08;;;;;;;9.25;100.00;100449.50;4957235;28;20125;-89
2023/12/29 08:19:34;;;;;;;5.35;0.90;;;;;;;9.31;100.00;100449.03;4978019;28;20027;-89
2023/12/29 08:22:00;;;;;;;7.65;1.10;;;;;;;9.33;100.00;100447.03;4974746;28;20041;-88
2023/12/29 08:24:25;;;;;;;7.47;1.10;;;;;;;9.34;100.00;100446.00;4974551;28;20025;-86
2023/12/29 08:26:50;;;;;;;7.22;1.02;;;;;;;9.34;100.00;100462.41;4955726;28;20030;-86
2023/12/29 08:29:16;;;;;;;7.18;1.40;;;;;;;9.36;100.00;100465.91;4962853;28;20049;-87
2023/12/29 08:31:42;;;;;;;9.45;1.00;;;;;;;9.33;100.00;100452.50;4976089;28;20041;-86
2023/12/29 08:34:08;;;;;;;5.15;1.30;;;;;;;9.39;100.00;100456.56;4947839;28;20062;-85
2023/12/29 08:36:33;;;;;;;7.35;0.77;;;;;;;9.40;100.00;100447.41;4951071;28;20109;-86
2023/12/29 08:38:59;;;;;;;11.23;2.45;;;;;;;9.43;100.00;100457.19;4970919;28;20563;-85
2023/12/29 08:41:24;;;;;;;8.50;1.00;;;;;;;9.36;100.00;100449.50;4953410;28;20039;-85
2023/12/29 08:43:50;;;;;;;4.03;0.82;;;;;;;9.38;100.00;100438.47;4937795;28;20043;-85
2023/12/29 08:46:15;;;;;;;5.38;0.80;;;;;;;9.40;100.00;100436.47;4958811;28;20031;-88
2023/12/29 08:48:40;;;;;;;10.00;1.30;;;;;;;9.45;100.00;100444.31;4958949;28;20026;-87
2023/12/29 08:51:06;;;;;;;6.07;0.98;;;;;;;9.37;100.00;100436.72;4945352;28;20034;-87
2023/12/29 08:53:35;;;;;;;4.55;1.25;;;;;;;9.40;100.00;100463.78;4972716;28;20122;-87
2023/12/29 08:56:01;;;;;;;5.18;0.85;;;;;;;9.42;100.00;100469.13;4977527;28;20034;-87
2023/12/29 08:58:26;;;;;;;7.15;1.00;;;;;;;9.42;100.00;100464.53;4996219;28;20551;-87
2023/12/29 09:00:52;;;;;;;5.97;1.10;;;;;;;9.43;100.00;100471.75;4996898;28;20031;-87
2023/12/29 09:03:17;;;;;;;4.32;0.80;;;;;;;9.47;100.00;100481.41;4977116;28;20031;-87
2023/12/29 09:05:43;;;;;;;3.38;0.70;;;;;;;9.46;100.00;100463.31;4944407;29;20046;-87
2023/12/29 09:08:09;;;;;;;5.40;0.80;;;;;;;9.45;100.00;100472.47;4956769;28;20463;-87
2023/12/29 09:10:34;;;;;;;3.95;1.13;;;;;;;9.48;100.00;100485.03;4994213;28;20086;-87
2023/12/29 09:12:59;;;;;;;4.88;0.70;;;;;;;9.43;100.00;100493.59;4980497;28;20023;-88
2023/12/29 09:15:25;;;;;;;4.47;0.77;;;;;;;9.41;100.00;100486.50;4967473;28;20125;-88
2023/12/29 09:17:51;;;;;;;1.15;0.80;;;;;;;9.36;100.00;100474.09;4963966;28;20078;-88
2023/12/29 09:20:17;;;;;;;2.60;0.70;;;;;;;9.37;100.00;100483.16;4987724;28;20027;-88
2023/12/29 09:22:42;;;;;;;3.35;0.70;;;;;;;9.41;100.00;100472.84;5003858;28;20037;-87
2023/12/29 09:25:08;;;;;;;7.93;1.10;;;;;;;9.36;100.00;100473.22;4975777;28;20034;-88
2023/12/29 09:27:34;;;;;;;6.82;0.77;;;;;;;9.36;100.00;100471.38;4981499;28;20035;-88
2023/12/29 09:29:59;;;;;;;2.80;0.70;;;;;;;9.35;100.00;100471.50;4950881;28;20034;-88
2023/12/29 09:32:25;;;;;;;3.00;0.65;;;;;;;9.34;100.00;100480.66;4949296;28;20108;-88
2023/12/29 09:34:51;;;;;;;5.72;0.75;;;;;;;9.41;100.00;100481.03;4988059;28;20031;-89
2023/12/29 09:37:17;;;;;;;5.50;0.80;;;;;;;9.44;100.00;100492.59;4957322;28;20042;-88
2023/12/29 09:39:43;;;;;;;2.88;0.90;;;;;;;9.53;100.00;100491.00;4984429;28;20034;-88
2023/12/29 09:42:13;;;;;;;5.05;0.70;;;;;;;9.45;100.00;100497.06;4994949;28;20035;-88
2023/12/29 09:44:40;;;;;;;4.15;0.85;;;;;;;9.47;100.00;100496.97;4983603;28;20089;-88
2023/12/29 09:47:09;;;;;;;6.07;0.70;;;;;;;9.46;100.00;100498.84;4976688;28;20038;-87
2023/12/29 09:49:39;;;;;;;1.75;0.60;;;;;;;9.51;100.00;100501.16;4980495;28;20023;-87
2023/12/29 09:52:09;;;;;;;4.32;0.60;;;;;;;9.52;100.00;100509.25;5003020;28;20034;-88
2023/12/29 09:54:36;;;;;;;4.15;0.90;;;;;;;9.53;100.00;100500.06;4991566;28;20453;-87
2023/12/29 09:57:04;;;;;;;5.13;0.82;;;;;;;9.56;100.00;100504.44;4979703;28;20105;-88
2023/12/29 09:59:36;;;;;;;3.33;0.85;;;;;;;9.58;100.00;100502.44;4963416;28;20038;-88
2023/12/29 10:02:03;;;;;;;3.45;0.60;;;;;;;9.63;100.00;100516.59;4985389;28;20025;-87
2023/12/29 10:04:29;;;;;;;2.75;0.60;;;;;;;9.60;100.00;100491.38;4971586;28;20086;-88
2023/12/29 10:06:56;;;;;;;3.83;0.75;;;;;;;9.62;100.00;100520.31;4960913;28;20497;-88
2023/12/29 10:09:23;;;;;;;1.25;0.75;;;;;;;9.63;100.00;100516.59;4989812;28;20388;-87
2023/12/29 10:11:51;;;;;;;3.05;0.85;;;;;;;9.63;100.00;100515.72;4961514;28;20042;-87
2023/12/29 10:14:46;;;;;;;1.75;0.70;;;;;;;9.60;100.00;100516.84;4966287;28;20023;-87
2023/12/29 10:17:40;;;;;;;2.70;0.68;;;;;;;9.64;100.00;100512.88;4979121;28;20031;-88
2023/12/29 10:20:24;;;;;;;4.95;0.60;;;;;;;9.66;100.00;100516.34;4989271;28;20026;-90
2023/12/29 10:23:08;;;;;;;1.45;0.70;;;;;;;9.67;100.00;100504.41;4984207;28;20473;-90
2023/12/29 10:25:34;;;;;;;4.80;0.82;;;;;;;9.74;100.00;100513.00;4992772;28;20038;-88
2023/12/29 10:27:59;;;;;;;3.75;0.70;;;;;;;9.77;100.00;100522.78;4994132;28;20030;-88
2023/12/29 10:30:26;;;;;;;6.53;0.90;;;;;;;9.77;100.00;100529.13;4981701;28;20432;-88
2023/12/29 10:32:52;;;;;;;9.82;0.80;;;;;;;9.83;100.00;100530.50;4979081;28;20125;-88
2023/12/29 10:35:18;;;;;;;3.55;1.50;;;;;;;9.86;100.00;100531.13;4969116;28;20035;-88
2023/12/29 10:37:44;;;;;;;4.90;1.23;;;;;;;9.88;100.00;100525.53;4983098;28;20042;-88
2023/12/29 10:40:17;;;;;;;3.40;0.70;;;;;;;9.86;100.00;100524.78;4951939;28;20019;-88
2023/12/29 10:42:52;;;;;;;1.88;0.70;;;;;;;9.88;100.00;100525.53;4987726;28;20031;-88
2023/12/29 10:45:18;;;;;;;2.75;0.82;;;;;;;9.90;100.00;100539.94;4985188;28;20116;-87
2023/12/29 10:47:44;;;;;;;3.90;0.70;;;;;;;9.90;100.00;100531.75;4959864;28;20106;-88
2023/12/29 10:50:09;;;;;;;5.03;0.90;;;;;;;9.96;100.00;100544.06;4992079;28;20070;-89
2023/12/29 10:52:37;;;;;;;7.97;0.70;;;;;;;10.06;100.00;100531.34;4964436;28;20042;-89
2023/12/29 10:55:07;;;;;;;3.20;0.50;;;;;;;10.04;100.00;100523.28;4968667;28;20026;-88
2023/12/29 10:57:32;;;;;;;3.95;0.70;;;;;;;10.08;100.00;100532.09;4973339;28;20035;-89
2023/12/29 11:00:00;;;;;;;4.15;0.90;;;;;;;10.14;100.00;100525.25;4991826;28;20476;-87
2023/12/29 11:02:26;;;;;;;5.32;0.85;;;;;;;10.11;100.00;100520.91;4979174;28;20026;-88
2023/12/29 11:04:52;;;;;;;5.43;0.90;;;;;;;10.17;100.00;100525.00;4996418;28;20049;-88
2023/12/29 11:07:36;;;;;;;3.22;1.60;;;;;;;10.18;100.00;100526.72;4971777;28;20492;-88
2023/12/29 11:10:04;;;;;;;7.38;0.82;;;;;;;10.19;100.00;100525.75;4990734;28;20022;-88
2023/12/29 11:12:32;;;;;;;6.50;0.98;;;;;;;10.24;100.00;100531.69;4996554;28;20050;-89
2023/12/29 11:14:58;;;;;;;6.85;0.80;;;;;;;10.23;100.00;100527.22;4976374;28;20109;-88